sensor_id;sensor_type;location;lat;lon;timestamp;pressure;altitude;pressure_sealevel;temperature;humidity
12973;BME280;6551;51.056;9.466;2023-04-20T00:00:53;97832.38;;;13.27;53.60
12973;BME280;6551;51.056;9.466;2023-04-20T00:03:19;97816.44;;;13.09;53.15
12973;BME280;6551;51.056;9.466;2023-04-20T00:05:46;97816.34;;;13.27;53.73
12973;BME280;6551;51.056;9.466;2023-04-20T00:08:16;97804.25;;;13.25;53.59
12973;BME280;6551;51.056;9.466;2023-04-20T00:10:44;97807.94;;;13.70;53.92
12973;BME280;6551;51.056;9.466;2023-04-20T00:13:10;97801.63;;;12.95;53.16
12973;BME280;6551;51.056;9.466;2023-04-20T00:15:36;97798.50;;;12.98;53.73
12973;BME280;6551;51.056;9.466;2023-04-20T00:18:04;97803.31;;;13.19;53.42
12973;BME280;6551;51.056;9.466;2023-04-20T00:20:30;97793.25;;;12.91;54.14
12973;BME280;6551;51.056;9.466;2023-04-20T00:22:59;97788.50;;;13.05;54.15
12973;BME280;6551;51.056;9.466;2023-04-20T00:25:26;97786.69;;;12.64;54.12
12973;BME280;6551;51.056;9.466;2023-04-20T00:27:52;97781.28;;;12.94;54.92
12973;BME280;6551;51.056;9.466;2023-04-20T00:30:17;97782.28;;;12.70;55.02
12973;BME280;6551;51.056;9.466;2023-04-20T00:32:45;97782.06;;;12.83;55.03
12973;BME280;6551;51.056;9.466;2023-04-20T00:35:11;97775.78;;;12.66;54.67
12973;BME280;6551;51.056;9.466;2023-04-20T00:37:37;97775.19;;;12.64;55.53
12973;BME280;6551;51.056;9.466;2023-04-20T00:40:05;97770.00;;;12.80;55.30
12973;BME280;6551;51.056;9.466;2023-04-20T00:42:31;97773.69;;;12.68;55.70
12973;BME280;6551;51.056;9.466;2023-04-20T00:44:57;97769.19;;;12.91;55.48
12973;BME280;6551;51.056;9.466;2023-04-20T00:47:24;97766.41;;;12.86;55.56
12973;BME280;6551;51.056;9.466;2023-04-20T00:49:51;97759.63;;;12.61;55.86
12973;BME280;6551;51.056;9.466;2023-04-20T00:52:19;97760.19;;;12.51;56.29
12973;BME280;6551;51.056;9.466;2023-04-20T00:54:46;97752.84;;;12.47;56.53
12973;BME280;6551;51.056;9.466;2023-04-20T00:57:14;97756.16;;;12.60;57.35
12973;BME280;6551;51.056;9.466;2023-04-20T00:59:44;97748.53;;;12.87;56.42
12973;BME280;6551;51.056;9.466;2023-04-20T01:02:10;97745.28;;;12.85;56.74
12973;BME280;6551;51.056;9.466;2023-04-20T01:04:38;97740.63;;;13.04;56.08
12973;BME280;6551;51.056;9.466;2023-04-20T01:07:04;97723.41;;;13.00;55.34
12973;BME280;6551;51.056;9.466;2023-04-20T01:09:30;97727.84;;;13.06;56.45
12973;BME280;6551;51.056;9.466;2023-04-20T01:11:56;97720.88;;;13.16;55.59
12973;BME280;6551;51.056;9.466;2023-04-20T01:14:22;97711.72;;;13.24;55.58
12973;BME280;6551;51.056;9.466;2023-04-20T01:16:49;97712.63;;;13.29;55.26
12973;BME280;6551;51.056;9.466;2023-04-20T01:19:19;97713.56;;;13.35;55.04
12973;BME280;6551;51.056;9.466;2023-04-20T01:21:47;97712.28;;;13.14;54.87
12973;BME280;6551;51.056;9.466;2023-04-20T01:24:14;97714.47;;;12.94;55.04
12973;BME280;6551;51.056;9.466;2023-04-20T01:26:40;97706.31;;;12.77;55.85
12973;BME280;6551;51.056;9.466;2023-04-20T01:29:06;97706.22;;;12.72;56.36
12973;BME280;6551;51.056;9.466;2023-04-20T01:31:31;97698.66;;;12.81;56.42
12973;BME280;6551;51.056;9.466;2023-04-20T01:33:58;97696.34;;;12.84;56.30
12973;BME280;6551;51.056;9.466;2023-04-20T01:36:25;97700.63;;;12.97;56.32
12973;BME280;6551;51.056;9.466;2023-04-20T01:38:52;97695.44;;;13.02;56.85
12973;BME280;6551;51.056;9.466;2023-04-20T01:41:19;97695.22;;;13.15;56.62
12973;BME280;6551;51.056;9.466;2023-04-20T01:43:46;97686.47;;;13.20;56.01
12973;BME280;6551;51.056;9.466;2023-04-20T01:46:13;97682.03;;;13.48;55.18
12973;BME280;6551;51.056;9.466;2023-04-20T01:48:40;97680.81;;;13.56;55.71
12973;BME280;6551;51.056;9.466;2023-04-20T01:51:06;97674.06;;;13.65;54.70
12973;BME280;6551;51.056;9.466;2023-04-20T01:53:34;97670.63;;;13.81;54.69
12973;BME280;6551;51.056;9.466;2023-04-20T01:56:00;97668.59;;;13.88;54.48
12973;BME280;6551;51.056;9.466;2023-04-20T01:58:27;97664.66;;;14.36;54.02
12973;BME280;6551;51.056;9.466;2023-04-20T02:00:53;97672.41;;;14.21;53.79
12973;BME280;6551;51.056;9.466;2023-04-20T02:03:20;97658.53;;;14.35;53.49
12973;BME280;6551;51.056;9.466;2023-04-20T02:05:47;97660.28;;;14.30;54.13
12973;BME280;6551;51.056;9.466;2023-04-20T02:08:13;97663.97;;;14.57;54.10
12973;BME280;6551;51.056;9.466;2023-04-20T02:10:40;97657.47;;;14.25;53.65
12973;BME280;6551;51.056;9.466;2023-04-20T02:13:06;97653.00;;;14.14;53.83
12973;BME280;6551;51.056;9.466;2023-04-20T02:15:33;97646.41;;;14.33;53.94
12973;BME280;6551;51.056;9.466;2023-04-20T02:17:59;97659.50;;;14.18;53.41
12973;BME280;6551;51.056;9.466;2023-04-20T02:20:26;97654.63;;;14.15;54.04
12973;BME280;6551;51.056;9.466;2023-04-20T02:22:52;97653.16;;;14.07;53.95
12973;BME280;6551;51.056;9.466;2023-04-20T02:25:20;97653.81;;;14.14;54.21
12973;BME280;6551;51.056;9.466;2023-04-20T02:27:47;97646.59;;;14.15;54.11
12973;BME280;6551;51.056;9.466;2023-04-20T02:30:12;97639.78;;;14.07;54.05
12973;BME280;6551;51.056;9.466;2023-04-20T02:32:39;97637.69;;;14.26;54.31
12973;BME280;6551;51.056;9.466;2023-04-20T02:35:05;97643.16;;;14.02;53.82
12973;BME280;6551;51.056;9.466;2023-04-20T02:37:31;97639.16;;;13.88;53.89
12973;BME280;6551;51.056;9.466;2023-04-20T02:39:58;97634.56;;;14.00;54.07
12973;BME280;6551;51.056;9.466;2023-04-20T02:42:24;97634.22;;;13.97;54.20
12973;BME280;6551;51.056;9.466;2023-04-20T02:44:51;97636.25;;;13.90;54.79
12973;BME280;6551;51.056;9.466;2023-04-20T02:47:18;97626.75;;;13.82;54.98
12973;BME280;6551;51.056;9.466;2023-04-20T02:49:44;97630.81;;;13.85;54.91
12973;BME280;6551;51.056;9.466;2023-04-20T02:52:09;97628.13;;;13.85;54.39
12973;BME280;6551;51.056;9.466;2023-04-20T02:54:35;97623.69;;;13.90;54.88
12973;BME280;6551;51.056;9.466;2023-04-20T02:57:01;97624.16;;;13.87;54.41
12973;BME280;6551;51.056;9.466;2023-04-20T02:59:27;97616.84;;;13.83;54.71
12973;BME280;6551;51.056;9.466;2023-04-20T03:01:54;97613.63;;;13.97;54.81
12973;BME280;6551;51.056;9.466;2023-04-20T03:04:21;97610.63;;;13.94;55.16
12973;BME280;6551;51.056;9.466;2023-04-20T03:06:51;97608.63;;;13.73;54.92
12973;BME280;6551;51.056;9.466;2023-04-20T03:09:18;97611.75;;;13.81;55.36
12973;BME280;6551;51.056;9.466;2023-04-20T03:11:44;97612.66;;;13.59;55.90
12973;BME280;6551;51.056;9.466;2023-04-20T03:14:10;97602.84;;;13.36;56.44
12973;BME280;6551;51.056;9.466;2023-04-20T03:16:36;97610.94;;;13.24;56.13
12973;BME280;6551;51.056;9.466;2023-04-20T03:19:01;97611.66;;;13.48;56.55
12973;BME280;6551;51.056;9.466;2023-04-20T03:21:30;97609.38;;;13.28;56.20
12973;BME280;6551;51.056;9.466;2023-04-20T03:23:59;97613.91;;;13.28;56.85
12973;BME280;6551;51.056;9.466;2023-04-20T03:26:26;97604.66;;;13.19;56.70
12973;BME280;6551;51.056;9.466;2023-04-20T03:28:52;97610.09;;;13.24;56.14
12973;BME280;6551;51.056;9.466;2023-04-20T03:31:19;97607.78;;;13.04;56.33
12973;BME280;6551;51.056;9.466;2023-04-20T03:33:46;97608.75;;;12.75;57.28
12973;BME280;6551;51.056;9.466;2023-04-20T03:36:13;97606.31;;;12.62;56.95
12973;BME280;6551;51.056;9.466;2023-04-20T03:38:40;97607.69;;;12.41;57.65
12973;BME280;6551;51.056;9.466;2023-04-20T03:41:06;97620.13;;;12.47;58.17
12973;BME280;6551;51.056;9.466;2023-04-20T03:43:33;97615.06;;;11.93;58.70
12973;BME280;6551;51.056;9.466;2023-04-20T03:45:58;97620.69;;;11.73;59.57
12973;BME280;6551;51.056;9.466;2023-04-20T03:48:24;97608.47;;;11.65;60.18
12973;BME280;6551;51.056;9.466;2023-04-20T03:50:51;97610.72;;;11.80;59.96
12973;BME280;6551;51.056;9.466;2023-04-20T03:53:18;97607.16;;;11.86;60.16
12973;BME280;6551;51.056;9.466;2023-04-20T03:55:45;97615.66;;;11.95;59.84
12973;BME280;6551;51.056;9.466;2023-04-20T03:58:11;97611.41;;;11.76;59.78
12973;BME280;6551;51.056;9.466;2023-04-20T04:00:37;97618.31;;;11.95;60.06
12973;BME280;6551;51.056;9.466;2023-04-20T04:03:02;97613.22;;;11.93;59.47
12973;BME280;6551;51.056;9.466;2023-04-20T04:05:28;97602.34;;;12.18;58.52
12973;BME280;6551;51.056;9.466;2023-04-20T04:07:54;97596.78;;;12.31;58.12
12973;BME280;6551;51.056;9.466;2023-04-20T04:10:20;97603.16;;;12.30;59.38
12973;BME280;6551;51.056;9.466;2023-04-20T04:12:45;97608.41;;;12.48;58.11
12973;BME280;6551;51.056;9.466;2023-04-20T04:15:11;97601.31;;;12.42;57.63
12973;BME280;6551;51.056;9.466;2023-04-20T04:17:37;97614.31;;;12.50;58.00
12973;BME280;6551;51.056;9.466;2023-04-20T04:20:04;97610.28;;;12.59;58.65
12973;BME280;6551;51.056;9.466;2023-04-20T04:22:33;97603.88;;;12.49;58.49
12973;BME280;6551;51.056;9.466;2023-04-20T04:24:58;97612.47;;;12.51;58.87
12973;BME280;6551;51.056;9.466;2023-04-20T04:27:25;97620.25;;;12.64;58.50
12973;BME280;6551;51.056;9.466;2023-04-20T04:29:55;97617.00;;;12.50;57.90
12973;BME280;6551;51.056;9.466;2023-04-20T04:32:22;97613.66;;;12.55;58.21
12973;BME280;6551;51.056;9.466;2023-04-20T04:34:48;97605.72;;;12.25;58.75
12973;BME280;6551;51.056;9.466;2023-04-20T04:37:15;97609.00;;;12.50;58.80
12973;BME280;6551;51.056;9.466;2023-04-20T04:39:42;97608.50;;;12.30;57.30
12973;BME280;6551;51.056;9.466;2023-04-20T04:42:08;97624.47;;;11.95;57.96
12973;BME280;6551;51.056;9.466;2023-04-20T04:44:35;97612.41;;;11.63;58.51
12973;BME280;6551;51.056;9.466;2023-04-20T04:47:02;97609.19;;;11.25;60.46
12973;BME280;6551;51.056;9.466;2023-04-20T04:49:31;97612.59;;;11.32;60.68
12973;BME280;6551;51.056;9.466;2023-04-20T04:52:01;97615.34;;;11.25;60.49
12973;BME280;6551;51.056;9.466;2023-04-20T04:54:27;97618.81;;;11.26;62.15
12973;BME280;6551;51.056;9.466;2023-04-20T04:56:52;97619.56;;;11.33;62.06
12973;BME280;6551;51.056;9.466;2023-04-20T04:59:18;97619.59;;;11.44;60.16
12973;BME280;6551;51.056;9.466;2023-04-20T05:01:44;97621.75;;;11.36;59.90
12973;BME280;6551;51.056;9.466;2023-04-20T05:04:10;97617.88;;;10.66;60.39
12973;BME280;6551;51.056;9.466;2023-04-20T05:06:36;97621.16;;;10.61;63.43
12973;BME280;6551;51.056;9.466;2023-04-20T05:09:02;97624.56;;;10.50;63.13
12973;BME280;6551;51.056;9.466;2023-04-20T05:11:27;97629.56;;;10.40;62.78
12973;BME280;6551;51.056;9.466;2023-04-20T05:13:53;97625.44;;;10.44;63.72
12973;BME280;6551;51.056;9.466;2023-04-20T05:16:20;97635.16;;;10.56;63.37
12973;BME280;6551;51.056;9.466;2023-04-20T05:18:47;97633.94;;;10.52;63.12
12973;BME280;6551;51.056;9.466;2023-04-20T05:21:14;97621.84;;;10.75;64.25
12973;BME280;6551;51.056;9.466;2023-04-20T05:23:40;97633.50;;;10.98;63.24
12973;BME280;6551;51.056;9.466;2023-04-20T05:26:06;97629.81;;;10.99;61.97
12973;BME280;6551;51.056;9.466;2023-04-20T05:28:34;97638.59;;;11.18;63.14
12973;BME280;6551;51.056;9.466;2023-04-20T05:31:00;97637.50;;;11.07;62.26
12973;BME280;6551;51.056;9.466;2023-04-20T05:33:26;97639.25;;;11.32;63.44
12973;BME280;6551;51.056;9.466;2023-04-20T05:35:56;97636.59;;;11.61;61.95
12973;BME280;6551;51.056;9.466;2023-04-20T05:38:23;97636.59;;;11.80;61.19
12973;BME280;6551;51.056;9.466;2023-04-20T05:40:50;97636.44;;;11.74;60.50
12973;BME280;6551;51.056;9.466;2023-04-20T05:43:18;97639.06;;;11.93;60.11
12973;BME280;6551;51.056;9.466;2023-04-20T05:45:45;97640.75;;;11.76;58.67
12973;BME280;6551;51.056;9.466;2023-04-20T05:48:11;97644.47;;;11.56;59.16
12973;BME280;6551;51.056;9.466;2023-04-20T05:50:36;97637.31;;;11.39;60.04
12973;BME280;6551;51.056;9.466;2023-04-20T05:53:02;97637.47;;;11.26;61.58
12973;BME280;6551;51.056;9.466;2023-04-20T05:55:28;97645.28;;;11.27;61.66
12973;BME280;6551;51.056;9.466;2023-04-20T05:57:53;97638.81;;;10.98;60.62
12973;BME280;6551;51.056;9.466;2023-04-20T06:00:21;97644.22;;;11.10;61.81
12973;BME280;6551;51.056;9.466;2023-04-20T06:02:48;97642.94;;;10.76;62.54
12973;BME280;6551;51.056;9.466;2023-04-20T06:05:13;97643.09;;;10.63;63.57
12973;BME280;6551;51.056;9.466;2023-04-20T06:07:40;97659.06;;;10.63;62.70
12973;BME280;6551;51.056;9.466;2023-04-20T06:10:07;97651.25;;;10.43;62.71
12973;BME280;6551;51.056;9.466;2023-04-20T06:12:33;97658.34;;;10.25;63.43
12973;BME280;6551;51.056;9.466;2023-04-20T06:14:59;97659.06;;;10.07;65.19
12973;BME280;6551;51.056;9.466;2023-04-20T06:17:26;97657.13;;;9.89;63.73
12973;BME280;6551;51.056;9.466;2023-04-20T06:19:52;97657.63;;;9.80;65.78
12973;BME280;6551;51.056;9.466;2023-04-20T06:22:19;97661.44;;;9.90;66.64
12973;BME280;6551;51.056;9.466;2023-04-20T06:24:46;97649.03;;;10.09;67.03
12973;BME280;6551;51.056;9.466;2023-04-20T06:27:13;97652.09;;;10.37;67.46
12973;BME280;6551;51.056;9.466;2023-04-20T06:29:40;97648.56;;;10.68;64.21
12973;BME280;6551;51.056;9.466;2023-04-20T06:32:06;97648.66;;;10.80;63.18
12973;BME280;6551;51.056;9.466;2023-04-20T06:34:31;97655.47;;;10.94;63.61
12973;BME280;6551;51.056;9.466;2023-04-20T06:36:57;97646.38;;;10.58;64.40
12973;BME280;6551;51.056;9.466;2023-04-20T06:39:23;97657.69;;;10.54;64.19
12973;BME280;6551;51.056;9.466;2023-04-20T06:41:49;97651.41;;;10.48;64.67
12973;BME280;6551;51.056;9.466;2023-04-20T06:44:16;97660.94;;;10.56;64.25
12973;BME280;6551;51.056;9.466;2023-04-20T06:46:42;97653.41;;;10.53;65.15
12973;BME280;6551;51.056;9.466;2023-04-20T06:49:09;97653.34;;;10.60;65.24
12973;BME280;6551;51.056;9.466;2023-04-20T06:51:35;97658.81;;;10.65;64.15
12973;BME280;6551;51.056;9.466;2023-04-20T06:54:02;97654.53;;;10.64;63.39
12973;BME280;6551;51.056;9.466;2023-04-20T06:56:28;97665.69;;;10.29;64.25
12973;BME280;6551;51.056;9.466;2023-04-20T06:58:53;97660.47;;;10.41;64.45
12973;BME280;6551;51.056;9.466;2023-04-20T07:01:19;97663.63;;;10.31;65.73
12973;BME280;6551;51.056;9.466;2023-04-20T07:03:46;97668.06;;;10.37;64.78
12973;BME280;6551;51.056;9.466;2023-04-20T07:06:11;97665.34;;;10.19;63.99
12973;BME280;6551;51.056;9.466;2023-04-20T07:08:38;97665.69;;;10.29;66.07
12973;BME280;6551;51.056;9.466;2023-04-20T07:11:05;97667.84;;;10.39;66.06
12973;BME280;6551;51.056;9.466;2023-04-20T07:13:30;97659.44;;;10.42;66.01
12973;BME280;6551;51.056;9.466;2023-04-20T07:15:56;97661.50;;;10.65;64.14
12973;BME280;6551;51.056;9.466;2023-04-20T07:18:22;97672.91;;;10.72;65.28
12973;BME280;6551;51.056;9.466;2023-04-20T07:20:49;97659.25;;;11.04;64.36
12973;BME280;6551;51.056;9.466;2023-04-20T07:23:15;97668.81;;;10.94;63.39
12973;BME280;6551;51.056;9.466;2023-04-20T07:25:42;97662.44;;;11.13;63.94
12973;BME280;6551;51.056;9.466;2023-04-20T07:28:10;97669.84;;;11.29;63.40
12973;BME280;6551;51.056;9.466;2023-04-20T07:30:35;97663.22;;;11.50;62.80
12973;BME280;6551;51.056;9.466;2023-04-20T07:33:02;97667.75;;;11.49;61.14
12973;BME280;6551;51.056;9.466;2023-04-20T07:35:28;97659.63;;;11.26;62.57
12973;BME280;6551;51.056;9.466;2023-04-20T07:37:53;97662.28;;;11.26;62.13
12973;BME280;6551;51.056;9.466;2023-04-20T07:40:21;97666.44;;;11.40;62.41
12973;BME280;6551;51.056;9.466;2023-04-20T07:42:47;97673.59;;;11.40;62.60
12973;BME280;6551;51.056;9.466;2023-04-20T07:45:14;97674.94;;;11.49;62.20
12973;BME280;6551;51.056;9.466;2023-04-20T07:47:41;97680.47;;;11.65;62.76
12973;BME280;6551;51.056;9.466;2023-04-20T07:50:11;97681.31;;;11.11;62.30
12973;BME280;6551;51.056;9.466;2023-04-20T07:52:37;97680.78;;;11.03;64.68
12973;BME280;6551;51.056;9.466;2023-04-20T07:55:04;97694.72;;;11.23;64.85
12973;BME280;6551;51.056;9.466;2023-04-20T07:57:30;97688.28;;;11.12;64.40
12973;BME280;6551;51.056;9.466;2023-04-20T07:59:56;97695.06;;;11.45;64.48
12973;BME280;6551;51.056;9.466;2023-04-20T08:02:21;97699.00;;;11.60;62.77
12973;BME280;6551;51.056;9.466;2023-04-20T08:04:47;97708.03;;;11.23;61.84
12973;BME280;6551;51.056;9.466;2023-04-20T08:07:16;97703.44;;;11.12;64.36
12973;BME280;6551;51.056;9.466;2023-04-20T08:09:44;97699.13;;;11.11;64.64
12973;BME280;6551;51.056;9.466;2023-04-20T08:12:13;97699.66;;;11.01;63.96
12973;BME280;6551;51.056;9.466;2023-04-20T08:14:40;97706.31;;;10.68;63.72
12973;BME280;6551;51.056;9.466;2023-04-20T08:17:06;97706.72;;;10.09;65.37
12973;BME280;6551;51.056;9.466;2023-04-20T08:19:32;97698.16;;;10.13;67.17
12973;BME280;6551;51.056;9.466;2023-04-20T08:21:58;97711.06;;;10.03;66.34
12973;BME280;6551;51.056;9.466;2023-04-20T08:24:25;97698.69;;;9.84;66.54
12973;BME280;6551;51.056;9.466;2023-04-20T08:26:51;97712.84;;;9.20;68.26
12973;BME280;6551;51.056;9.466;2023-04-20T08:29:18;97723.94;;;9.04;69.80
12973;BME280;6551;51.056;9.466;2023-04-20T08:31:46;97715.38;;;8.50;70.88
12973;BME280;6551;51.056;9.466;2023-04-20T08:34:13;97717.66;;;8.66;73.00
12973;BME280;6551;51.056;9.466;2023-04-20T08:36:40;97722.13;;;8.33;72.12
12973;BME280;6551;51.056;9.466;2023-04-20T08:39:12;97709.00;;;8.11;73.48
12973;BME280;6551;51.056;9.466;2023-04-20T08:41:40;97724.66;;;7.87;74.02
12973;BME280;6551;51.056;9.466;2023-04-20T08:44:08;97712.72;;;8.23;74.30
12973;BME280;6551;51.056;9.466;2023-04-20T08:46:37;97718.63;;;8.25;74.25
12973;BME280;6551;51.056;9.466;2023-04-20T08:49:11;97714.56;;;8.36;73.78
12973;BME280;6551;51.056;9.466;2023-04-20T08:51:39;97717.41;;;8.21;72.92
12973;BME280;6551;51.056;9.466;2023-04-20T08:54:05;97721.13;;;8.27;73.45
12973;BME280;6551;51.056;9.466;2023-04-20T08:56:41;97724.78;;;8.46;73.53
12973;BME280;6551;51.056;9.466;2023-04-20T08:59:08;97712.94;;;8.42;72.57
12973;BME280;6551;51.056;9.466;2023-04-20T09:01:43;97715.00;;;8.66;72.03
12973;BME280;6551;51.056;9.466;2023-04-20T09:04:25;97711.28;;;8.93;71.96
12973;BME280;6551;51.056;9.466;2023-04-20T09:06:54;97699.78;;;9.19;71.05
12973;BME280;6551;51.056;9.466;2023-04-20T09:09:23;97716.56;;;9.70;69.42
12973;BME280;6551;51.056;9.466;2023-04-20T09:12:03;97703.34;;;9.88;67.32
12973;BME280;6551;51.056;9.466;2023-04-20T09:14:40;97708.47;;;9.90;67.77
12973;BME280;6551;51.056;9.466;2023-04-20T09:17:06;97700.59;;;10.15;67.55
12973;BME280;6551;51.056;9.466;2023-04-20T09:19:32;97701.81;;;10.43;65.50
12973;BME280;6551;51.056;9.466;2023-04-20T09:21:59;97701.94;;;10.80;65.32
12973;BME280;6551;51.056;9.466;2023-04-20T09:24:36;97708.28;;;11.22;64.23
12973;BME280;6551;51.056;9.466;2023-04-20T09:27:17;97698.56;;;11.27;63.14
12973;BME280;6551;51.056;9.466;2023-04-20T09:29:59;97705.06;;;11.67;62.99
12973;BME280;6551;51.056;9.466;2023-04-20T09:32:27;97702.91;;;11.58;61.90
12973;BME280;6551;51.056;9.466;2023-04-20T09:34:57;97705.59;;;11.76;62.21
12973;BME280;6551;51.056;9.466;2023-04-20T09:37:24;97701.72;;;11.72;60.66
12973;BME280;6551;51.056;9.466;2023-04-20T09:39:59;97702.13;;;11.57;60.83
12973;BME280;6551;51.056;9.466;2023-04-20T09:42:27;97707.06;;;11.18;60.66
12973;BME280;6551;51.056;9.466;2023-04-20T09:44:55;97695.13;;;10.59;62.55
12973;BME280;6551;51.056;9.466;2023-04-20T09:47:22;97720.69;;;9.97;63.54
12973;BME280;6551;51.056;9.466;2023-04-20T09:49:52;97717.44;;;9.58;65.54
12973;BME280;6551;51.056;9.466;2023-04-20T09:52:19;97720.59;;;9.35;67.05
12973;BME280;6551;51.056;9.466;2023-04-20T09:54:46;97714.91;;;9.12;68.31
12973;BME280;6551;51.056;9.466;2023-04-20T09:57:16;97708.63;;;8.93;68.66
12973;BME280;6551;51.056;9.466;2023-04-20T09:59:47;97714.91;;;9.18;68.68
12973;BME280;6551;51.056;9.466;2023-04-20T10:02:13;97714.88;;;9.25;68.63
12973;BME280;6551;51.056;9.466;2023-04-20T10:04:59;97710.19;;;9.27;68.49
12973;BME280;6551;51.056;9.466;2023-04-20T10:07:30;97720.59;;;9.35;67.42
12973;BME280;6551;51.056;9.466;2023-04-20T10:10:13;97716.47;;;9.46;67.33
12973;BME280;6551;51.056;9.466;2023-04-20T10:12:53;97708.06;;;9.49;67.11
12973;BME280;6551;51.056;9.466;2023-04-20T10:15:22;97709.25;;;9.53;67.97
12973;BME280;6551;51.056;9.466;2023-04-20T10:17:49;97703.28;;;9.64;67.50
12973;BME280;6551;51.056;9.466;2023-04-20T10:20:27;97711.47;;;9.69;67.71
12973;BME280;6551;51.056;9.466;2023-04-20T10:23:08;97700.94;;;9.80;67.31
12973;BME280;6551;51.056;9.466;2023-04-20T10:25:36;97692.28;;;9.54;67.36
12973;BME280;6551;51.056;9.466;2023-04-20T10:28:04;97699.97;;;9.75;68.06
12973;BME280;6551;51.056;9.466;2023-04-20T10:30:34;97696.19;;;9.58;67.32
12973;BME280;6551;51.056;9.466;2023-04-20T10:33:10;97700.03;;;9.62;67.66
12973;BME280;6551;51.056;9.466;2023-04-20T10:35:54;97691.22;;;9.61;67.28
12973;BME280;6551;51.056;9.466;2023-04-20T10:38:31;97680.56;;;9.68;66.78
12973;BME280;6551;51.056;9.466;2023-04-20T10:41:12;97677.66;;;9.76;67.15
12973;BME280;6551;51.056;9.466;2023-04-20T10:43:39;97677.97;;;9.92;66.42
12973;BME280;6551;51.056;9.466;2023-04-20T10:46:21;97669.59;;;10.51;66.01
12973;BME280;6551;51.056;9.466;2023-04-20T10:49:00;97676.50;;;10.34;65.05
12973;BME280;6551;51.056;9.466;2023-04-20T10:51:26;97677.03;;;10.43;65.31
12973;BME280;6551;51.056;9.466;2023-04-20T10:54:02;97666.56;;;10.91;64.40
12973;BME280;6551;51.056;9.466;2023-04-20T10:59:14;97671.28;;;10.89;63.42
12973;BME280;6551;51.056;9.466;2023-04-20T11:01:56;97673.25;;;10.57;64.28
12973;BME280;6551;51.056;9.466;2023-04-20T11:04:30;97665.53;;;10.49;64.12
12973;BME280;6551;51.056;9.466;2023-04-20T11:07:07;97665.31;;;10.26;64.80
12973;BME280;6551;51.056;9.466;2023-04-20T11:09:34;97659.16;;;10.25;64.83
12973;BME280;6551;51.056;9.466;2023-04-20T11:12:06;97661.34;;;10.60;65.51
12973;BME280;6551;51.056;9.466;2023-04-20T11:14:36;97655.78;;;10.61;65.02
12973;BME280;6551;51.056;9.466;2023-04-20T11:17:03;97652.25;;;10.42;64.58
12973;BME280;6551;51.056;9.466;2023-04-20T11:19:32;97650.25;;;10.63;65.69
12973;BME280;6551;51.056;9.466;2023-04-20T11:22:00;97650.81;;;10.46;64.75
12973;BME280;6551;51.056;9.466;2023-04-20T11:24:31;97646.34;;;10.40;64.95
12973;BME280;6551;51.056;9.466;2023-04-20T11:26:58;97640.09;;;10.53;65.65
12973;BME280;6551;51.056;9.466;2023-04-20T11:29:35;97630.66;;;10.75;65.48
12973;BME280;6551;51.056;9.466;2023-04-20T11:32:04;97639.22;;;10.59;64.06
12973;BME280;6551;51.056;9.466;2023-04-20T11:34:31;97624.06;;;10.60;63.73
12973;BME280;6551;51.056;9.466;2023-04-20T11:37:06;97625.94;;;10.95;63.46
12973;BME280;6551;51.056;9.466;2023-04-20T11:39:33;97618.84;;;10.89;63.75
12973;BME280;6551;51.056;9.466;2023-04-20T11:41:59;97629.03;;;10.92;62.31
12973;BME280;6551;51.056;9.466;2023-04-20T11:44:26;97623.78;;;10.86;61.59
12973;BME280;6551;51.056;9.466;2023-04-20T11:46:54;97624.97;;;11.08;62.06
12973;BME280;6551;51.056;9.466;2023-04-20T11:49:25;97621.34;;;11.21;62.30
12973;BME280;6551;51.056;9.466;2023-04-20T11:51:53;97622.59;;;11.18;60.94
12973;BME280;6551;51.056;9.466;2023-04-20T11:54:21;97622.16;;;11.21;61.24
12973;BME280;6551;51.056;9.466;2023-04-20T11:56:48;97621.72;;;11.24;60.66
12973;BME280;6551;51.056;9.466;2023-04-20T11:59:14;97623.03;;;11.33;60.53
12973;BME280;6551;51.056;9.466;2023-04-20T12:01:43;97616.66;;;11.34;60.35
12973;BME280;6551;51.056;9.466;2023-04-20T12:04:09;97609.56;;;11.76;60.61
12973;BME280;6551;51.056;9.466;2023-04-20T12:06:36;97616.84;;;12.10;59.49
12973;BME280;6551;51.056;9.466;2023-04-20T12:09:02;97608.75;;;12.40;59.35
12973;BME280;6551;51.056;9.466;2023-04-20T12:11:30;97602.84;;;12.38;59.01
12973;BME280;6551;51.056;9.466;2023-04-20T12:13:57;97613.16;;;12.35;58.64
12973;BME280;6551;51.056;9.466;2023-04-20T12:16:26;97586.78;;;12.15;58.25
12973;BME280;6551;51.056;9.466;2023-04-20T12:18:52;97603.69;;;11.97;58.21
12973;BME280;6551;51.056;9.466;2023-04-20T12:21:20;97610.34;;;12.06;58.11
12973;BME280;6551;51.056;9.466;2023-04-20T12:23:46;97598.31;;;12.27;57.67
12973;BME280;6551;51.056;9.466;2023-04-20T12:26:15;97599.81;;;12.58;57.42
12973;BME280;6551;51.056;9.466;2023-04-20T12:28:42;97594.81;;;12.61;56.62
12973;BME280;6551;51.056;9.466;2023-04-20T12:31:09;97589.72;;;12.71;56.56
12973;BME280;6551;51.056;9.466;2023-04-20T12:33:35;97585.53;;;12.75;54.74
12973;BME280;6551;51.056;9.466;2023-04-20T12:36:02;97573.59;;;12.43;55.46
12973;BME280;6551;51.056;9.466;2023-04-20T12:38:28;97578.56;;;12.40;55.54
12973;BME280;6551;51.056;9.466;2023-04-20T12:40:55;97587.25;;;12.12;55.62
12973;BME280;6551;51.056;9.466;2023-04-20T12:43:22;97578.06;;;12.08;55.83
12973;BME280;6551;51.056;9.466;2023-04-20T12:45:48;97579.84;;;12.25;56.46
12973;BME280;6551;51.056;9.466;2023-04-20T12:48:15;97579.16;;;12.42;56.65
12973;BME280;6551;51.056;9.466;2023-04-20T12:50:41;97577.41;;;12.47;56.04
12973;BME280;6551;51.056;9.466;2023-04-20T12:53:07;97562.66;;;12.33;56.06
12973;BME280;6551;51.056;9.466;2023-04-20T12:55:34;97555.72;;;12.44;55.79
12973;BME280;6551;51.056;9.466;2023-04-20T12:58:00;97560.81;;;12.10;56.63
12973;BME280;6551;51.056;9.466;2023-04-20T13:00:27;97557.22;;;12.51;57.04
12973;BME280;6551;51.056;9.466;2023-04-20T13:02:53;97547.69;;;12.32;57.72
12973;BME280;6551;51.056;9.466;2023-04-20T13:05:20;97553.72;;;12.27;57.64
12973;BME280;6551;51.056;9.466;2023-04-20T13:07:47;97566.59;;;12.42;56.40
12973;BME280;6551;51.056;9.466;2023-04-20T13:10:14;97557.09;;;12.35;57.04
12973;BME280;6551;51.056;9.466;2023-04-20T13:12:41;97558.44;;;12.02;57.40
12973;BME280;6551;51.056;9.466;2023-04-20T13:15:08;97558.09;;;11.87;57.74
12973;BME280;6551;51.056;9.466;2023-04-20T13:17:34;97568.22;;;11.67;57.30